createdAt,value
2018-01-08T00:00:35.124Z,18.90
2018-01-08T00:03:02.974Z,19.67
2018-01-08T00:05:31.030Z,20.97
2018-01-08T00:07:58.901Z,19.30
2018-01-08T00:10:26.980Z,24.37
2018-01-08T00:12:54.860Z,22.83
2018-01-08T00:15:23.433Z,21.60
2018-01-08T00:17:51.438Z,25.30
2018-01-08T00:20:20.044Z,25.70
2018-01-08T00:22:47.849Z,17.30
2018-01-08T00:25:15.821Z,23.70
2018-01-08T00:27:44.791Z,25.43
2018-01-08T00:30:12.967Z,22.87
2018-01-08T00:32:40.861Z,20.50
2018-01-08T00:35:08.902Z,21.27
2018-01-08T00:37:36.972Z,27.90
2018-01-08T00:40:04.860Z,23.43
2018-01-08T00:42:32.724Z,21.90
2018-01-08T00:45:00.964Z,19.83
2018-01-08T00:47:29.178Z,24.07
2018-01-08T00:49:57.052Z,18.97
2018-01-08T00:52:24.907Z,20.03
2018-01-08T00:54:52.773Z,19.77
2018-01-08T00:57:20.539Z,21.47
2018-01-08T00:59:48.403Z,16.23
2018-01-08T01:02:16.375Z,26.50
2018-01-08T01:04:44.322Z,21.40
2018-01-08T01:07:12.209Z,20.00
2018-01-08T01:09:40.054Z,18.93
2018-01-08T01:12:07.887Z,22.50
2018-01-08T01:14:35.674Z,22.67
2018-01-08T01:17:03.620Z,20.13
2018-01-08T01:19:31.441Z,22.20
2018-01-08T01:21:59.421Z,20.23
2018-01-08T01:24:27.496Z,24.77
2018-01-08T01:26:55.338Z,25.93
2018-01-08T01:29:23.207Z,23.80
2018-01-08T01:31:50.971Z,22.63
2018-01-08T01:34:18.848Z,21.23
2018-01-08T01:36:46.845Z,18.47
2018-01-08T01:39:15.472Z,28.33
2018-01-08T01:41:43.323Z,20.20
2018-01-08T01:44:11.246Z,22.17
2018-01-08T01:46:39.710Z,22.27
2018-01-08T01:49:19.538Z,22.93
2018-01-08T01:51:47.732Z,17.77
2018-01-08T01:54:15.647Z,23.43
2018-01-08T01:56:43.663Z,19.83
2018-01-08T01:59:11.566Z,19.60
2018-01-08T02:01:40.196Z,20.33
2018-01-08T02:04:08.167Z,19.57
2018-01-08T02:06:35.942Z,17.70
2018-01-08T02:09:03.920Z,16.90
2018-01-08T02:11:31.752Z,17.20
2018-01-08T02:13:59.757Z,18.57
2018-01-08T02:16:27.665Z,22.07
2018-01-08T02:18:56.172Z,19.07
2018-01-08T02:21:23.959Z,20.17
2018-01-08T02:23:51.912Z,16.23
2018-01-08T02:26:19.781Z,18.40
2018-01-08T02:28:47.674Z,20.07
2018-01-08T02:31:15.718Z,17.80
2018-01-08T02:33:43.585Z,15.87
2018-01-08T02:36:11.466Z,15.37
2018-01-08T02:38:39.318Z,14.27
2018-01-08T02:41:07.102Z,16.47
2018-01-08T02:43:34.972Z,16.87
2018-01-08T02:46:02.940Z,17.50
2018-01-08T02:48:30.928Z,18.00
2018-01-08T02:50:59.451Z,17.77
2018-01-08T02:53:27.434Z,14.77
2018-01-08T02:55:55.427Z,16.57
2018-01-08T02:58:24.195Z,15.50
2018-01-08T03:00:52.088Z,19.67
2018-01-08T03:03:20.004Z,15.93
2018-01-08T03:05:47.899Z,14.10
2018-01-08T03:08:15.794Z,16.30
2018-01-08T03:10:43.576Z,15.10
2018-01-08T03:13:12.211Z,14.40
2018-01-08T03:15:40.135Z,16.93
2018-01-08T03:18:08.884Z,14.30
2018-01-08T03:20:36.732Z,14.50
2018-01-08T03:23:04.626Z,15.57
2018-01-08T03:25:32.481Z,13.80
2018-01-08T03:28:00.255Z,17.60
2018-01-08T03:30:28.114Z,17.63
2018-01-08T03:32:55.882Z,14.23
2018-01-08T03:35:23.746Z,15.40
2018-01-08T03:37:51.715Z,16.07
2018-01-08T03:40:19.580Z,16.83
2018-01-08T03:42:47.439Z,14.90
2018-01-08T03:45:16.846Z,14.30
2018-01-08T03:47:44.618Z,15.23
2018-01-08T03:50:12.477Z,12.07
2018-01-08T03:52:40.254Z,15.60
2018-01-08T03:55:08.106Z,14.40
2018-01-08T03:57:35.867Z,14.70
2018-01-08T04:00:03.685Z,15.20
2018-01-08T04:02:31.586Z,15.47
2018-01-08T04:04:59.452Z,16.70
2018-01-08T04:07:27.334Z,17.20
2018-01-08T04:09:55.097Z,15.83
2018-01-08T04:12:22.978Z,15.30
2018-01-08T04:14:50.845Z,18.83
2018-01-08T04:17:18.699Z,15.40
2018-01-08T04:19:46.652Z,15.20
2018-01-08T04:22:14.549Z,15.73
2018-01-08T04:24:42.316Z,15.43
2018-01-08T04:27:10.876Z,13.03
2018-01-08T04:29:38.656Z,15.90
2018-01-08T04:32:06.618Z,13.43
2018-01-08T04:34:34.480Z,16.00
2018-01-08T04:37:02.330Z,14.90
2018-01-08T04:39:30.351Z,15.67
2018-01-08T04:41:59.115Z,16.77
2018-01-08T04:44:27.054Z,13.93
2018-01-08T04:46:54.837Z,15.30
2018-01-08T04:49:22.808Z,17.53
2018-01-08T04:51:50.596Z,13.63
2018-01-08T04:54:19.157Z,15.60
2018-01-08T04:56:46.915Z,14.90
2018-01-08T04:59:14.779Z,15.70
2018-01-08T05:01:42.649Z,13.90
2018-01-08T05:04:10.417Z,15.17
2018-01-08T05:06:38.173Z,18.13
2018-01-08T05:09:06.230Z,16.40
2018-01-08T05:11:34.826Z,14.03
2018-01-08T05:14:02.585Z,14.47
2018-01-08T05:16:30.502Z,16.07
2018-01-08T05:18:58.435Z,15.20
2018-01-08T05:21:26.601Z,17.00
2018-01-08T05:23:54.381Z,15.50
2018-01-08T05:26:22.424Z,15.77
2018-01-08T05:28:50.502Z,21.17
2018-01-08T05:31:18.913Z,16.63
2018-01-08T05:33:46.988Z,17.70
2018-01-08T05:36:15.553Z,16.40
2018-01-08T05:38:43.427Z,15.93
2018-01-08T05:41:11.477Z,16.80
2018-01-08T05:43:39.353Z,14.20
2018-01-08T05:46:07.248Z,18.33
2018-01-08T05:48:35.915Z,17.90
2018-01-08T05:51:03.674Z,19.23
2018-01-08T05:53:32.352Z,17.80
2018-01-08T05:56:00.184Z,20.40
2018-01-08T05:58:27.923Z,20.40
2018-01-08T06:00:56.754Z,20.37
2018-01-08T06:03:24.722Z,19.07
2018-01-08T06:05:52.566Z,18.50
2018-01-08T06:08:20.328Z,18.10
2018-01-08T06:10:48.226Z,19.23
2018-01-08T06:13:16.029Z,15.80
2018-01-08T06:15:45.091Z,22.60
2018-01-08T06:18:12.980Z,22.73
2018-01-08T06:20:42.631Z,20.97
2018-01-08T06:23:10.412Z,22.50
2018-01-08T06:25:38.180Z,19.30
2018-01-08T06:28:06.058Z,17.40
2018-01-08T06:30:33.906Z,19.90
2018-01-08T06:33:01.796Z,19.90
2018-01-08T06:35:29.594Z,22.50
2018-01-08T06:37:58.144Z,20.30
2018-01-08T06:40:25.911Z,25.00
2018-01-08T06:42:53.768Z,20.43
2018-01-08T06:45:21.635Z,28.80
2018-01-08T06:47:49.587Z,29.00
2018-01-08T06:50:17.653Z,34.90
2018-01-08T06:52:45.535Z,31.00
2018-01-08T06:55:13.511Z,31.90
2018-01-08T06:57:41.355Z,35.43
2018-01-08T07:00:09.254Z,29.97
2018-01-08T07:02:37.088Z,24.67
2018-01-08T07:05:04.940Z,26.43
2018-01-08T07:07:32.708Z,24.27
2018-01-08T07:10:01.615Z,26.07
2018-01-08T07:12:30.807Z,25.10
2018-01-08T07:14:58.608Z,21.93
2018-01-08T07:20:16.136Z,21.07
2018-01-08T07:22:43.900Z,18.33
2018-01-08T07:25:11.732Z,12.90
2018-01-08T07:27:39.640Z,14.30
2018-01-08T07:30:07.583Z,13.37
2018-01-08T07:32:35.469Z,14.57
2018-01-08T07:35:03.420Z,15.00
2018-01-08T07:37:31.202Z,17.63
2018-01-08T07:40:00.104Z,108.93
2018-01-08T07:42:28.002Z,73.77
2018-01-08T07:44:55.822Z,78.90
2018-01-08T07:47:23.702Z,110.07
2018-01-08T07:49:51.511Z,53.07
2018-01-08T07:52:19.278Z,63.80
2018-01-08T07:54:47.167Z,46.90
2018-01-08T07:57:14.989Z,27.73
2018-01-08T07:59:43.617Z,19.37
2018-01-08T08:02:11.437Z,22.97
2018-01-08T08:04:39.970Z,20.10
2018-01-08T08:07:07.785Z,17.13
2018-01-08T08:09:36.435Z,18.50
2018-01-08T08:12:04.315Z,15.30
2018-01-08T08:14:32.159Z,17.10
2018-01-08T08:17:00.063Z,16.83
2018-01-08T08:19:28.785Z,16.37
2018-01-08T08:21:56.677Z,16.63
2018-01-08T08:24:24.975Z,16.50
2018-01-08T08:26:53.014Z,17.27
2018-01-08T08:29:20.879Z,15.10
2018-01-08T08:31:48.626Z,15.97
2018-01-08T08:34:16.442Z,13.60
2018-01-08T08:36:44.287Z,14.30
2018-01-08T08:39:12.066Z,15.33
2018-01-08T08:41:39.940Z,15.30
2018-01-08T08:44:07.811Z,15.90
2018-01-08T08:46:35.652Z,15.40
2018-01-08T08:49:03.459Z,16.20
2018-01-08T08:51:31.273Z,15.00
2018-01-08T08:53:59.190Z,20.20
2018-01-08T08:56:27.851Z,41.67
2018-01-08T08:58:55.716Z,40.40
2018-01-08T09:01:23.568Z,20.60
2018-01-08T09:03:51.435Z,21.33
2018-01-08T09:06:19.392Z,22.43
2018-01-08T09:11:40.012Z,20.10
2018-01-08T09:14:07.742Z,17.73
2018-01-08T09:16:35.538Z,17.70
2018-01-08T09:19:03.414Z,16.43
2018-01-08T09:21:31.251Z,22.20
2018-01-08T09:23:58.996Z,16.40
2018-01-08T09:26:26.901Z,16.93
2018-01-08T09:28:54.663Z,14.80
2018-01-08T09:31:22.538Z,18.40
2018-01-08T09:33:50.498Z,14.83
2018-01-08T09:36:18.373Z,11.83
2018-01-08T09:38:46.949Z,10.90
2018-01-08T09:41:14.813Z,10.27
2018-01-08T09:43:42.674Z,11.07
2018-01-08T09:46:10.535Z,10.30
2018-01-08T09:48:38.549Z,9.20
2018-01-08T09:51:07.205Z,12.17
2018-01-08T09:53:35.073Z,9.90
2018-01-08T09:56:02.919Z,12.23
2018-01-08T09:58:30.767Z,13.60
2018-01-08T10:00:58.597Z,11.33
2018-01-08T10:03:39.133Z,27.40
2018-01-08T10:06:18.774Z,15.60
2018-01-08T10:08:58.519Z,13.47
2018-01-08T10:11:38.864Z,26.50
2018-01-08T10:14:18.504Z,23.43
2018-01-08T10:16:58.283Z,15.03
2018-01-08T10:19:37.930Z,17.77
2018-01-08T10:22:06.507Z,16.10
2018-01-08T10:24:34.460Z,14.53
2018-01-08T10:27:02.326Z,12.73
2018-01-08T10:29:30.354Z,12.67
2018-01-08T10:31:58.465Z,11.70
2018-01-08T10:34:26.345Z,11.00
2018-01-08T10:36:55.122Z,11.20
2018-01-08T10:39:22.956Z,15.77
2018-01-08T10:41:56.401Z,13.73
2018-01-08T10:44:30.520Z,14.23
2018-01-08T10:47:04.489Z,18.83
2018-01-08T10:49:37.899Z,12.50
2018-01-08T10:52:05.242Z,12.83
2018-01-08T10:54:33.880Z,14.40
2018-01-08T10:57:02.612Z,12.90
2018-01-08T10:59:30.490Z,11.50
2018-01-08T11:02:04.033Z,11.97
2018-01-08T11:04:32.764Z,11.10
2018-01-08T11:07:01.041Z,11.30
2018-01-08T11:09:29.014Z,12.80
2018-01-08T11:11:56.810Z,11.80
2018-01-08T11:14:25.563Z,14.50
2018-01-08T11:16:53.562Z,13.70
2018-01-08T11:19:21.411Z,12.87
2018-01-08T11:21:49.379Z,11.30
2018-01-08T11:24:17.781Z,12.10
2018-01-08T11:26:45.719Z,11.23
2018-01-08T11:29:13.507Z,12.93
2018-01-08T11:31:41.806Z,10.43
2018-01-08T11:34:10.459Z,10.10
2018-01-08T11:36:38.310Z,10.00
2018-01-08T11:39:07.111Z,10.80
2018-01-08T11:41:34.971Z,10.37
2018-01-08T11:44:04.688Z,10.23
2018-01-08T11:46:33.048Z,11.97
2018-01-08T11:49:01.640Z,11.53
2018-01-08T11:51:29.823Z,10.00
2018-01-08T11:53:58.437Z,14.03
2018-01-08T11:56:27.545Z,12.30
2018-01-08T11:58:57.406Z,11.47
2018-01-08T12:01:25.366Z,13.83
2018-01-08T12:04:02.456Z,18.07
2018-01-08T12:06:30.728Z,17.67
2018-01-08T12:08:58.729Z,10.93
2018-01-08T12:11:27.544Z,12.17
2018-01-08T12:13:55.406Z,10.90
2018-01-08T12:16:24.167Z,10.50
2018-01-08T12:18:53.556Z,12.20
2018-01-08T12:21:22.325Z,12.13
2018-01-08T12:23:50.381Z,12.00
2018-01-08T12:26:18.865Z,11.67
2018-01-08T12:28:46.776Z,13.60
2018-01-08T12:31:14.629Z,10.77
2018-01-08T12:33:42.490Z,10.87
2018-01-08T12:36:11.470Z,9.80
2018-01-08T12:38:39.252Z,10.17
2018-01-08T12:41:08.412Z,10.33
2018-01-08T12:43:36.498Z,10.23
2018-01-08T12:46:04.471Z,10.60
2018-01-08T12:48:32.541Z,11.30
2018-01-08T12:51:00.820Z,10.67
2018-01-08T12:53:29.844Z,12.07
2018-01-08T12:55:58.476Z,11.30
2018-01-08T12:58:26.314Z,10.40
2018-01-08T13:00:54.951Z,10.43
2018-01-08T13:03:23.245Z,10.53
2018-01-08T13:05:51.308Z,10.20
2018-01-08T13:08:19.272Z,14.57
2018-01-08T13:10:47.230Z,11.90
2018-01-08T13:13:15.119Z,17.67
2018-01-08T13:15:43.084Z,12.53
2018-01-08T13:18:11.012Z,11.40
2018-01-08T13:20:39.004Z,11.20
2018-01-08T13:23:06.868Z,12.80
2018-01-08T13:25:35.069Z,11.70
2018-01-08T13:28:03.117Z,11.73
2018-01-08T13:30:31.333Z,13.30
2018-01-08T13:33:00.012Z,11.17
2018-01-08T13:35:28.929Z,13.47
2018-01-08T13:37:57.671Z,11.87
2018-01-08T13:40:25.828Z,11.10
2018-01-08T13:42:53.821Z,12.47
2018-01-08T13:45:22.278Z,12.93
2018-01-08T13:47:50.249Z,12.10
2018-01-08T13:50:18.522Z,17.30
2018-01-08T13:52:46.591Z,14.20
2018-01-08T13:55:14.480Z,11.87
2018-01-08T13:57:42.451Z,12.97
2018-01-08T14:00:11.131Z,11.87
2018-01-08T14:02:39.114Z,12.33
2018-01-08T14:05:07.153Z,10.30
2018-01-08T14:07:35.183Z,12.20
2018-01-08T14:10:05.540Z,10.40
2018-01-08T14:12:33.465Z,9.90
2018-01-08T14:15:02.063Z,11.10
2018-01-08T14:17:30.644Z,14.70
2018-01-08T14:19:58.466Z,12.33
2018-01-08T14:22:26.375Z,11.50
2018-01-08T14:24:55.042Z,11.60
2018-01-08T14:27:23.714Z,11.27
2018-01-08T14:29:51.564Z,12.60
2018-01-08T14:32:19.336Z,11.43
2018-01-08T14:34:47.094Z,10.67
2018-01-08T14:37:15.072Z,10.73
2018-01-08T14:39:42.938Z,11.60
2018-01-08T14:42:11.600Z,10.13
2018-01-08T14:44:39.418Z,10.50
2018-01-08T14:47:08.096Z,10.83
2018-01-08T14:49:36.869Z,10.67
2018-01-08T14:52:05.524Z,10.77
2018-01-08T14:54:33.398Z,10.90
2018-01-08T14:57:01.467Z,12.13
2018-01-08T14:59:29.651Z,12.00
2018-01-08T15:01:57.849Z,11.57
2018-01-08T15:04:25.982Z,10.47
2018-01-08T15:06:53.981Z,12.33
2018-01-08T15:09:21.921Z,11.97
2018-01-08T15:11:49.995Z,13.67
2018-01-08T15:14:17.890Z,12.37
2018-01-08T15:16:45.937Z,13.57
2018-01-08T15:19:13.825Z,12.83
2018-01-08T15:21:41.895Z,14.03
2018-01-08T15:24:09.940Z,15.93
2018-01-08T15:26:37.916Z,17.93
2018-01-08T15:29:05.775Z,15.57
2018-01-08T15:31:34.480Z,13.83
2018-01-08T15:34:02.350Z,16.17
2018-01-08T15:36:30.393Z,23.20
2018-01-08T15:38:58.366Z,19.10
2018-01-08T15:41:26.258Z,18.37
2018-01-08T15:43:54.228Z,15.53
2018-01-08T15:46:22.169Z,16.70
2018-01-08T15:48:50.035Z,17.63
2018-01-08T15:51:18.110Z,18.80
2018-01-08T15:53:46.418Z,17.37
2018-01-08T15:56:14.827Z,20.40
2018-01-08T15:58:43.896Z,22.00
2018-01-08T16:01:13.218Z,21.77
2018-01-08T16:03:41.883Z,19.03
2018-01-08T16:06:09.720Z,19.83
2018-01-08T16:08:37.973Z,76.43
2018-01-08T16:11:13.286Z,45.20
2018-01-08T16:13:41.533Z,44.43
2018-01-08T16:16:09.810Z,29.63
2018-01-08T16:18:38.390Z,36.50
2018-01-08T16:21:06.200Z,28.80
2018-01-08T16:23:34.315Z,30.93
2018-01-08T16:26:02.150Z,26.63
2018-01-08T16:28:30.236Z,27.63
2018-01-08T16:30:58.363Z,27.20
2018-01-08T16:33:28.041Z,26.47
2018-01-08T16:35:55.909Z,40.30
2018-01-08T16:38:23.966Z,34.33
2018-01-08T16:40:52.026Z,33.00
2018-01-08T16:43:20.097Z,44.87
2018-01-08T16:45:48.586Z,31.10
2018-01-08T16:48:17.402Z,38.00
2018-01-08T16:50:45.465Z,34.60
2018-01-08T16:53:13.619Z,36.23
2018-01-08T16:55:41.680Z,35.07
2018-01-08T16:58:09.553Z,41.60
2018-01-08T17:00:37.540Z,34.00
2018-01-08T17:03:05.689Z,34.70
2018-01-08T17:05:33.714Z,73.20
2018-01-08T17:08:02.451Z,53.63
2018-01-08T17:10:30.971Z,53.33
2018-01-08T17:12:58.926Z,48.40
2018-01-08T17:15:27.821Z,64.70
2018-01-08T17:17:55.983Z,79.43
2018-01-08T17:20:24.134Z,82.53
2018-01-08T17:22:52.433Z,52.30
2018-01-08T17:25:20.385Z,43.40
2018-01-08T17:27:48.286Z,61.77
2018-01-08T17:30:17.034Z,45.13
2018-01-08T17:32:45.148Z,49.20
2018-01-08T17:35:14.320Z,45.10
2018-01-08T17:37:42.516Z,49.57
2018-01-08T17:40:11.270Z,60.50
2018-01-08T17:42:39.215Z,56.43
2018-01-08T17:45:07.198Z,56.47
2018-01-08T17:47:35.109Z,60.23
2018-01-08T17:50:04.676Z,59.07
2018-01-08T17:52:32.981Z,55.20
2018-01-08T17:55:01.164Z,50.87
2018-01-08T17:57:29.234Z,46.10
2018-01-08T17:59:58.093Z,45.73
2018-01-08T18:02:26.235Z,56.73
2018-01-08T18:04:54.146Z,57.80
2018-01-08T18:07:22.309Z,44.33
2018-01-08T18:09:50.187Z,50.47
2018-01-08T18:12:18.258Z,58.27
2018-01-08T18:14:46.210Z,57.07
2018-01-08T18:17:14.119Z,52.57
2018-01-08T18:19:43.063Z,59.80
2018-01-08T18:22:10.962Z,47.77
2018-01-08T18:24:38.929Z,42.40
2018-01-08T18:27:06.798Z,50.37
2018-01-08T18:29:35.688Z,36.93
2018-01-08T18:32:04.238Z,41.10
2018-01-08T18:34:32.953Z,45.80
2018-01-08T18:37:01.196Z,37.90
2018-01-08T18:39:29.088Z,38.50
2018-01-08T18:41:56.940Z,37.40
2018-01-08T18:44:25.215Z,37.73
2018-01-08T18:46:53.108Z,29.77
2018-01-08T18:49:21.050Z,33.47
2018-01-08T18:51:49.339Z,26.67
2018-01-08T18:54:17.494Z,27.10
2018-01-08T18:56:45.760Z,28.60
2018-01-08T18:59:13.945Z,27.63
2018-01-08T19:01:41.934Z,27.60
2018-01-08T19:04:10.903Z,25.10
2018-01-08T19:06:38.976Z,24.30
2018-01-08T19:09:07.087Z,27.40
2018-01-08T19:11:35.425Z,30.10
2018-01-08T19:14:03.394Z,27.70
2018-01-08T19:16:31.780Z,30.23
2018-01-08T19:18:59.673Z,26.70
2018-01-08T19:21:27.616Z,33.87
2018-01-08T19:23:55.779Z,26.70
2018-01-08T19:26:23.854Z,27.20
2018-01-08T19:28:51.820Z,28.83
2018-01-08T19:31:19.865Z,26.00
2018-01-08T19:33:47.757Z,27.97
2018-01-08T19:36:15.664Z,26.73
2018-01-08T19:38:43.529Z,28.80
2018-01-08T19:41:12.902Z,25.77
2018-01-08T19:43:40.999Z,28.57
2018-01-08T19:46:09.445Z,26.57
2018-01-08T19:48:37.417Z,25.90
2018-01-08T19:51:05.300Z,25.07
2018-01-08T19:53:33.453Z,25.27
2018-01-08T19:56:01.276Z,32.70
2018-01-08T19:58:30.108Z,28.50
2018-01-08T20:00:58.299Z,26.70
2018-01-08T20:03:26.463Z,26.70
2018-01-08T20:05:54.664Z,26.57
2018-01-08T20:08:23.440Z,25.40
2018-01-08T20:10:51.637Z,29.87
2018-01-08T20:13:20.277Z,26.27
2018-01-08T20:15:49.908Z,29.50
2018-01-08T20:18:18.166Z,25.80
2018-01-08T20:20:46.268Z,28.27
2018-01-08T20:23:15.944Z,28.40
2018-01-08T20:25:43.973Z,26.53
2018-01-08T20:28:12.600Z,28.00
2018-01-08T20:30:41.314Z,30.03
2018-01-08T20:33:09.475Z,26.90
2018-01-08T20:35:38.151Z,29.60
2018-01-08T20:38:06.133Z,33.00
2018-01-08T20:40:35.715Z,38.03
2018-01-08T20:43:03.792Z,36.33
2018-01-08T20:45:32.268Z,32.73
2018-01-08T20:48:00.299Z,32.07
2018-01-08T20:50:29.219Z,34.47
2018-01-08T20:52:57.382Z,37.83
2018-01-08T20:55:25.652Z,32.90
2018-01-08T20:57:53.698Z,38.57
2018-01-08T21:00:22.432Z,35.83
2018-01-08T21:02:50.458Z,34.10
2018-01-08T21:05:19.269Z,34.60
2018-01-08T21:07:47.373Z,35.90
2018-01-08T21:10:15.333Z,39.17
2018-01-08T21:12:44.726Z,27.57
2018-01-08T21:15:12.633Z,26.57
2018-01-08T21:17:41.211Z,29.53
2018-01-08T21:20:09.367Z,30.60
2018-01-08T21:22:37.244Z,32.10
2018-01-08T21:25:05.109Z,31.40
2018-01-08T21:27:32.956Z,33.53
2018-01-08T21:30:00.828Z,31.03
2018-01-08T21:32:28.727Z,26.67
2018-01-08T21:34:56.684Z,29.13
2018-01-08T21:37:24.539Z,28.17
2018-01-08T21:39:54.006Z,27.10
2018-01-08T21:42:21.918Z,28.60
2018-01-08T21:44:49.790Z,26.47
2018-01-08T21:47:17.833Z,27.80
2018-01-08T21:49:45.701Z,30.00
2018-01-08T21:52:13.637Z,27.83
2018-01-08T21:54:41.637Z,26.17
2018-01-08T21:57:09.635Z,22.83
2018-01-08T21:59:37.590Z,23.97
2018-01-08T22:02:05.655Z,23.37
2018-01-08T22:04:33.514Z,25.33
2018-01-08T22:07:01.724Z,24.10
2018-01-08T22:09:29.774Z,25.10
2018-01-08T22:11:57.761Z,24.97
2018-01-08T22:14:25.696Z,21.23
2018-01-08T22:16:53.614Z,23.37
2018-01-08T22:19:21.448Z,23.57
2018-01-08T22:21:50.345Z,21.57
2018-01-08T22:24:19.637Z,24.40
2018-01-08T22:26:47.605Z,21.20
2018-01-08T22:29:15.873Z,23.60
2018-01-08T22:31:43.929Z,23.93
2018-01-08T22:34:12.562Z,25.53
2018-01-08T22:36:41.306Z,20.63
2018-01-08T22:39:09.376Z,26.37
2018-01-08T22:41:38.173Z,23.83
2018-01-08T22:44:06.058Z,22.00
2018-01-08T22:46:34.102Z,21.70
2018-01-08T22:49:02.377Z,26.90
2018-01-08T22:51:30.366Z,24.23
2018-01-08T22:53:58.318Z,27.60
2018-01-08T22:56:26.589Z,26.80
2018-01-08T22:58:54.561Z,29.57
2018-01-08T23:01:22.648Z,28.00
2018-01-08T23:03:50.532Z,25.50
2018-01-08T23:06:18.569Z,26.13
2018-01-08T23:08:46.647Z,23.30
2018-01-08T23:11:14.456Z,27.30
2018-01-08T23:13:43.224Z,28.80
2018-01-08T23:16:11.262Z,28.30
2018-01-08T23:18:39.139Z,27.13
2018-01-08T23:21:07.200Z,25.33
2018-01-08T23:23:35.086Z,26.60
2018-01-08T23:26:02.941Z,25.37
2018-01-08T23:28:30.829Z,28.30
2018-01-08T23:30:58.688Z,26.57
2018-01-08T23:33:27.580Z,25.10
2018-01-08T23:35:55.365Z,28.20
2018-01-08T23:38:24.006Z,22.10
2018-01-08T23:40:51.795Z,26.63
2018-01-08T23:43:19.743Z,27.57
2018-01-08T23:45:47.547Z,29.13
2018-01-08T23:48:16.215Z,22.67
2018-01-08T23:50:45.303Z,26.73
2018-01-08T23:53:13.060Z,25.90
2018-01-08T23:55:41.039Z,22.53
2018-01-08T23:58:08.885Z,20.30
